ムルマンスク の空港の天気 - METARとTAF

ムルマンスク空港 ( ULMM / MMK ) - ロシア ムルマンスク
飛行場実況気象(Metar)
観測時間01/18 12:30 MSK (01/18 09:30 UTC)
風向・風速静穏 0m/s
視程10km以上
天気現象
なし
気温-18℃
湿度84%
気圧1014hPa
METARULMM 180930Z 00000MPS CAVOK M18/M20 Q1014 R13/450150 NOSIG RMK QFE754
過去の天気等 Google飛行場航空写真 Wunderground天気予報

過去48時間のMETAR

飛行場予報(TAF)
発表時間: 1/18 10:50 MSK (1/18 07:50 UTC)
予報対象時間: 18日12時 MSK ~ 19日12時 MSK
風向・風速南東 3m/s
視程10km以上
全天の8割程度の雲 雲底高度 340m
18日12時 MSK ~ 19日6時 MSK に一時的に
風向・風速東 3m/s
視程3,100m
天気現象弱いしゅう雪
全天の8割程度の積乱雲 雲底高度 340m
19日6時 MSK ~ 19日12時 MSK に一時的に
風向・風速南 2m/s
視程3,100m
天気現象弱いしゅう雪
全天の8割程度の積乱雲 雲底高度 340m
TAF ULMM 180750Z 1809/1909 14003MPS 9999 BKN011
TEMPO 1809/1903 10003MPS 3100 -SHSN BKN011CB
TEMPO 1903/1909 18002MPS 3100 -SHSN BKN011CB